Isle of Coll, United Kingdom
Current Conditions -  °F | °C
As of 9:50 PM on Thursday 27 Nov 2014 (Local Time) from EGPU Reporting Station
Clear Clear  
Wind Chill: 43°   Ceiling: Unl
Heat Index: 48°   Visibility: 6mi
Dew Point: 45°   Wind: 14mph
Humidity: 87%   Direction: 130°SE
Pressure: 29.56"   Gusts: NA
Location:  56.62°N, 6.53°W
Report Text: EGPU 272150Z AUTO 13012KT 9999 NCD 09/07 Q1001
Loading
Personal Weather Stations






























Interactive Weather Map New forecast layout! Learn more

10-Day Weather Forecast

Advertisements
Track Severe Weather on mobile